Time;durP1;ratioP1;P1;durP2;ratioP2;P2;SDS_P1;SDS_P2;PMS_P1;PMS_P2;Temp;Humidity;BMP_temperature;BMP_pressure;BME280_temperature;BME280_humidity;BME280_pressure;Samples;Min_cycle;Max_cycle;Signal;HPM_P1;HPM_P2
2022/08/21 00:02:15;;;;;;;10.63;5.70;;;;;;;;;;5077197;28;20317;-71
2022/08/21 00:04:41;;;;;;;12.32;6.63;;;;;;;;;;5080977;28;20594;-71
2022/08/21 00:07:08;;;;;;;16.38;7.07;;;;;;;;;;5080632;28;20077;-71
2022/08/21 00:09:34;;;;;;;9.27;6.13;;;;;;;;;;5082333;28;20055;-71
2022/08/21 00:12:00;;;;;;;13.07;6.22;;;;;;;;;;5080035;28;20067;-71
2022/08/21 00:14:26;;;;;;;11.55;7.40;;;;;;;;;;5081174;28;20060;-71
2022/08/21 00:16:53;;;;;;;12.40;6.38;;;;;;;;;;5078197;28;20409;-71
2022/08/21 00:19:19;;;;;;;20.60;6.93;;;;;;;;;;5078120;28;20048;-70
2022/08/21 00:21:45;;;;;;;14.25;6.35;;;;;;;;;;5073117;28;20432;-71
2022/08/21 00:24:12;;;;;;;16.23;7.72;;;;;;;;;;5075479;28;20040;-71
2022/08/21 00:26:38;;;;;;;14.45;7.03;;;;;;;;;;5085215;28;20126;-71
2022/08/21 00:29:05;;;;;;;14.32;7.40;;;;;;;;;;5086642;28;20046;-71
2022/08/21 00:31:31;;;;;;;13.45;7.30;;;;;;;;;;5085977;28;20048;-71
2022/08/21 00:33:57;;;;;;;11.45;6.63;;;;;;;;;;5076113;28;20040;-71
2022/08/21 00:36:23;;;;;;;11.73;7.63;;;;;;;;;;5081988;28;20036;-71
2022/08/21 00:38:49;;;;;;;17.27;8.02;;;;;;;;;;5093121;27;20051;-71
2022/08/21 00:41:16;;;;;;;12.80;7.53;;;;;;;;;;5075239;28;20149;-71
2022/08/21 00:43:42;;;;;;;14.70;8.20;;;;;;;;;;5073619;28;20493;-71
2022/08/21 00:46:08;;;;;;;17.00;8.60;;;;;;;;;;5079998;28;20480;-71
2022/08/21 00:48:35;;;;;;;16.80;8.90;;;;;;;;;;5077685;28;20040;-71
2022/08/21 00:51:05;;;;;;;12.60;8.07;;;;;;;;;;5073274;28;20116;-71
2022/08/21 00:53:31;;;;;;;22.38;8.40;;;;;;;;;;5076935;28;20131;-71
2022/08/21 00:55:58;;;;;;;15.93;8.95;;;;;;;;;;5085692;28;20036;-71
2022/08/21 00:58:26;;;;;;;15.40;9.05;;;;;;;;;;5091464;28;20450;-71
2022/08/21 01:00:52;;;;;;;15.10;8.32;;;;;;;;;;5082665;28;20075;-71
2022/08/21 01:03:21;;;;;;;15.45;8.57;;;;;;;;;;5082202;28;20391;-71
2022/08/21 01:05:47;;;;;;;15.10;8.55;;;;;;;;;;5079226;28;20049;-71
2022/08/21 01:08:16;;;;;;;14.52;8.10;;;;;;;;;;5078814;28;20062;-71
2022/08/21 01:10:42;;;;;;;11.93;8.73;;;;;;;;;;5087142;28;20048;-71
2022/08/21 01:13:09;;;;;;;13.23;8.35;;;;;;;;;;5083050;28;20055;-71
2022/08/21 01:15:37;;;;;;;14.00;8.75;;;;;;;;;;5075845;28;20083;-71
2022/08/21 01:18:05;;;;;;;14.50;8.05;;;;;;;;;;5084476;28;20056;-68
2022/08/21 01:20:32;;;;;;;13.15;8.20;;;;;;;;;;5092499;28;20104;-68
2022/08/21 01:22:58;;;;;;;15.60;8.13;;;;;;;;;;5085336;28;20032;-68
2022/08/21 01:25:24;;;;;;;12.57;8.32;;;;;;;;;;5080640;28;20032;-68
2022/08/21 01:27:50;;;;;;;12.82;8.00;;;;;;;;;;5087998;28;20043;-68
2022/08/21 01:30:18;;;;;;;12.68;8.45;;;;;;;;;;5080483;28;20178;-68
2022/08/21 01:32:45;;;;;;;16.02;8.55;;;;;;;;;;5083055;28;20063;-68
2022/08/21 01:35:11;;;;;;;16.85;9.48;;;;;;;;;;5082663;28;20035;-68
2022/08/21 01:37:38;;;;;;;15.23;8.60;;;;;;;;;;5082562;28;20456;-68
2022/08/21 01:40:05;;;;;;;14.43;8.15;;;;;;;;;;5079604;28;20051;-68
2022/08/21 01:42:31;;;;;;;15.77;8.43;;;;;;;;;;5080060;28;20044;-68
2022/08/21 01:44:58;;;;;;;14.38;8.63;;;;;;;;;;5081383;28;20051;-68
2022/08/21 01:47:24;;;;;;;13.57;8.50;;;;;;;;;;5082345;28;20259;-68
2022/08/21 01:49:50;;;;;;;17.45;10.13;;;;;;;;;;5081292;28;20043;-68
2022/08/21 01:52:17;;;;;;;14.23;9.32;;;;;;;;;;5069619;28;20115;-68
2022/08/21 01:54:43;;;;;;;16.65;8.73;;;;;;;;;;5080591;28;20123;-68
2022/08/21 01:57:10;;;;;;;14.98;8.65;;;;;;;;;;5075520;28;20044;-68
2022/08/21 01:59:36;;;;;;;14.65;7.72;;;;;;;;;;5082575;28;20483;-68
2022/08/21 02:02:03;;;;;;;13.63;7.93;;;;;;;;;;5059224;28;20494;-68
2022/08/21 02:04:30;;;;;;;15.05;8.65;;;;;;;;;;5079789;28;20055;-68
2022/08/21 02:06:56;;;;;;;15.02;7.80;;;;;;;;;;5081893;28;20138;-68
2022/08/21 02:09:22;;;;;;;12.90;7.60;;;;;;;;;;5084617;28;20039;-68
2022/08/21 02:11:49;;;;;;;16.98;8.52;;;;;;;;;;5092394;27;22082;-68
2022/08/21 02:14:15;;;;;;;16.88;9.23;;;;;;;;;;5079653;28;20066;-68
2022/08/21 02:16:43;;;;;;;14.63;8.27;;;;;;;;;;5086754;28;20072;-68
2022/08/21 02:19:10;;;;;;;20.52;9.23;;;;;;;;;;5077062;28;20048;-69
2022/08/21 02:21:36;;;;;;;16.17;9.25;;;;;;;;;;5078382;28;20087;-68
2022/08/21 02:24:02;;;;;;;16.15;8.32;;;;;;;;;;5078311;28;20048;-68
2022/08/21 02:26:28;;;;;;;14.80;9.20;;;;;;;;;;5077979;28;20079;-68
2022/08/21 02:28:55;;;;;;;15.82;8.68;;;;;;;;;;5080623;28;20039;-68
2022/08/21 02:31:21;;;;;;;16.35;8.57;;;;;;;;;;5080631;28;20435;-68
2022/08/21 02:33:47;;;;;;;15.60;8.93;;;;;;;;;;5075009;28;20090;-68
2022/08/21 02:36:14;;;;;;;14.55;8.65;;;;;;;;;;5074867;28;20040;-68
2022/08/21 02:38:41;;;;;;;15.45;8.70;;;;;;;;;;5079186;28;20052;-68
2022/08/21 02:41:09;;;;;;;19.60;9.70;;;;;;;;;;5083968;28;20047;-68
2022/08/21 02:43:36;;;;;;;15.32;8.68;;;;;;;;;;5084537;28;20051;-68
2022/08/21 02:46:03;;;;;;;12.02;8.20;;;;;;;;;;5072677;28;20048;-68
2022/08/21 02:48:31;;;;;;;15.05;8.07;;;;;;;;;;5077313;28;20036;-68
2022/08/21 02:50:58;;;;;;;15.02;8.48;;;;;;;;;;5083216;28;20036;-68
2022/08/21 02:53:25;;;;;;;15.75;8.85;;;;;;;;;;5084922;28;20331;-68
2022/08/21 02:55:51;;;;;;;16.38;10.07;;;;;;;;;;5080363;28;20043;-68
2022/08/21 02:58:19;;;;;;;16.35;8.93;;;;;;;;;;5079645;28;20047;-68
2022/08/21 03:00:45;;;;;;;13.00;8.25;;;;;;;;;;5081549;28;21099;-68
2022/08/21 03:03:14;;;;;;;16.52;9.23;;;;;;;;;;5075280;28;20161;-68
2022/08/21 03:05:40;;;;;;;17.23;9.93;;;;;;;;;;5081964;28;20410;-69
2022/08/21 03:08:10;;;;;;;15.63;8.88;;;;;;;;;;5078840;28;20105;-68
2022/08/21 03:10:37;;;;;;;12.52;8.27;;;;;;;;;;5077003;28;20036;-68
2022/08/21 03:13:03;;;;;;;16.20;8.95;;;;;;;;;;5085710;28;20105;-68
2022/08/21 03:15:30;;;;;;;16.55;9.25;;;;;;;;;;5078934;28;20355;-68
2022/08/21 03:17:56;;;;;;;18.58;10.20;;;;;;;;;;5077852;28;20059;-68
2022/08/21 03:20:24;;;;;;;21.83;10.10;;;;;;;;;;5086223;28;20044;-68
2022/08/21 03:22:51;;;;;;;15.68;9.80;;;;;;;;;;5076618;28;20127;-68
2022/08/21 03:25:18;;;;;;;16.58;9.50;;;;;;;;;;5082210;28;20066;-68
2022/08/21 03:27:44;;;;;;;17.35;9.52;;;;;;;;;;5078157;28;20041;-69
2022/08/21 03:30:11;;;;;;;14.85;9.93;;;;;;;;;;5077810;28;20093;-68
2022/08/21 03:32:38;;;;;;;17.25;10.02;;;;;;;;;;5075581;28;20090;-68
2022/08/21 03:35:05;;;;;;;20.85;10.63;;;;;;;;;;5073105;28;20577;-69
2022/08/21 03:37:32;;;;;;;22.55;10.40;;;;;;;;;;5069067;28;20503;-68
2022/08/21 03:39:58;;;;;;;19.83;10.07;;;;;;;;;;5082767;28;20036;-68
2022/08/21 03:42:24;;;;;;;14.25;9.32;;;;;;;;;;5083007;28;20043;-68
2022/08/21 03:44:50;;;;;;;16.65;9.68;;;;;;;;;;5080999;28;20036;-68
2022/08/21 03:47:17;;;;;;;19.88;10.07;;;;;;;;;;5082610;28;20044;-68
2022/08/21 03:49:43;;;;;;;18.17;9.57;;;;;;;;;;5072862;28;20448;-68
2022/08/21 03:52:09;;;;;;;15.30;9.18;;;;;;;;;;5071375;28;20032;-68
2022/08/21 03:54:35;;;;;;;17.60;9.43;;;;;;;;;;5078712;28;20044;-68
2022/08/21 03:57:01;;;;;;;22.15;9.98;;;;;;;;;;5078457;28;20036;-68
2022/08/21 03:59:27;;;;;;;13.52;8.50;;;;;;;;;;5082747;28;20135;-68
2022/08/21 04:01:55;;;;;;;19.10;9.65;;;;;;;;;;5083452;28;20040;-68
2022/08/21 04:04:21;;;;;;;21.83;9.77;;;;;;;;;;5077262;28;20043;-68
2022/08/21 04:06:47;;;;;;;19.33;9.68;;;;;;;;;;5079471;28;20139;-68
2022/08/21 04:09:14;;;;;;;13.63;8.95;;;;;;;;;;5076704;28;20052;-68
2022/08/21 04:11:40;;;;;;;20.52;9.45;;;;;;;;;;5076215;28;20067;-68
2022/08/21 04:14:06;;;;;;;15.60;9.48;;;;;;;;;;5096855;27;20056;-68
2022/08/21 04:16:32;;;;;;;17.05;8.98;;;;;;;;;;5079270;28;20758;-68
2022/08/21 04:18:58;;;;;;;21.27;9.55;;;;;;;;;;5076026;28;20054;-68
2022/08/21 04:21:25;;;;;;;18.52;9.60;;;;;;;;;;5086498;28;20067;-68
2022/08/21 04:23:51;;;;;;;19.27;9.98;;;;;;;;;;5079002;28;20036;-68
2022/08/21 04:26:17;;;;;;;16.02;10.05;;;;;;;;;;5083401;28;20193;-68
2022/08/21 04:28:44;;;;;;;23.98;10.20;;;;;;;;;;5081684;28;20067;-68
2022/08/21 04:31:10;;;;;;;18.38;9.85;;;;;;;;;;5078679;28;20082;-68
2022/08/21 04:33:36;;;;;;;19.45;10.50;;;;;;;;;;5080257;28;20047;-68
2022/08/21 04:36:02;;;;;;;20.60;10.80;;;;;;;;;;5082527;28;20152;-68
2022/08/21 04:38:31;;;;;;;20.17;9.85;;;;;;;;;;5081704;28;20127;-68
2022/08/21 04:40:57;;;;;;;17.58;9.73;;;;;;;;;;5084615;28;20055;-69
2022/08/21 04:43:23;;;;;;;18.80;10.38;;;;;;;;;;5085280;28;20048;-68
2022/08/21 04:45:50;;;;;;;17.35;9.70;;;;;;;;;;5086285;28;20494;-68
2022/08/21 04:48:18;;;;;;;16.30;9.13;;;;;;;;;;5087905;28;20132;-68
2022/08/21 04:50:49;;;;;;;17.23;10.10;;;;;;;;;;5081869;28;20505;-68
2022/08/21 04:53:18;;;;;;;18.75;9.48;;;;;;;;;;5093024;28;20691;-68
2022/08/21 04:55:45;;;;;;;19.95;10.68;;;;;;;;;;5078967;28;20059;-68
2022/08/21 04:58:13;;;;;;;15.77;9.55;;;;;;;;;;5081936;28;20044;-68
2022/08/21 05:00:40;;;;;;;18.02;10.70;;;;;;;;;;5081870;28;20044;-68
2022/08/21 05:03:07;;;;;;;22.30;10.10;;;;;;;;;;5077407;28;20084;-68
2022/08/21 05:05:34;;;;;;;18.52;9.90;;;;;;;;;;5083875;28;20477;-68
2022/08/21 05:08:01;;;;;;;18.48;9.65;;;;;;;;;;5081751;28;20043;-68
2022/08/21 05:10:27;;;;;;;17.85;10.25;;;;;;;;;;5084619;28;20052;-68
2022/08/21 05:12:54;;;;;;;18.40;10.18;;;;;;;;;;5084855;28;20031;-68
2022/08/21 05:15:20;;;;;;;19.67;10.25;;;;;;;;;;5080393;28;20048;-68
2022/08/21 05:17:47;;;;;;;16.10;9.43;;;;;;;;;;5080932;28;20140;-68
2022/08/21 05:20:13;;;;;;;19.30;10.02;;;;;;;;;;5079050;28;20047;-68
2022/08/21 05:22:39;;;;;;;17.73;10.40;;;;;;;;;;5083541;28;20043;-68
2022/08/21 05:25:06;;;;;;;17.38;10.48;;;;;;;;;;5088029;28;20133;-68
2022/08/21 05:27:32;;;;;;;21.90;10.35;;;;;;;;;;5095122;28;20065;-68
2022/08/21 05:29:59;;;;;;;19.27;10.07;;;;;;;;;;5083077;28;20109;-68
2022/08/21 05:32:27;;;;;;;20.58;10.02;;;;;;;;;;5069830;28;20108;-69
2022/08/21 05:34:53;;;;;;;19.58;10.35;;;;;;;;;;5079673;28;20046;-68
2022/08/21 05:37:19;;;;;;;20.55;9.98;;;;;;;;;;5075813;28;20040;-68
2022/08/21 05:39:46;;;;;;;15.38;9.80;;;;;;;;;;5082542;28;20047;-79
2022/08/21 05:42:12;;;;;;;20.92;9.75;;;;;;;;;;5065753;28;20044;-71
2022/08/21 05:44:38;;;;;;;23.55;11.02;;;;;;;;;;5079266;28;20525;-70
2022/08/21 05:47:06;;;;;;;20.70;10.38;;;;;;;;;;5080338;28;20040;-70
2022/08/21 05:49:32;;;;;;;23.92;10.80;;;;;;;;;;5078656;28;20483;-70
2022/08/21 05:51:58;;;;;;;23.42;10.27;;;;;;;;;;5080162;28;20044;-70
2022/08/21 05:54:25;;;;;;;20.45;10.13;;;;;;;;;;5080096;28;20603;-70
2022/08/21 05:56:51;;;;;;;16.65;10.07;;;;;;;;;;5083106;28;20042;-70
2022/08/21 05:59:18;;;;;;;18.27;11.23;;;;;;;;;;5082941;28;20058;-70
2022/08/21 06:01:45;;;;;;;19.60;10.80;;;;;;;;;;5087157;28;20511;-70
2022/08/21 06:04:11;;;;;;;21.17;11.23;;;;;;;;;;5077567;28;20486;-70
2022/08/21 06:06:37;;;;;;;22.45;10.35;;;;;;;;;;5082062;28;20048;-70
2022/08/21 06:09:04;;;;;;;31.13;11.07;;;;;;;;;;5082330;28;20105;-70
2022/08/21 06:11:31;;;;;;;19.10;9.90;;;;;;;;;;5087232;28;20100;-70
2022/08/21 06:13:57;;;;;;;20.92;10.75;;;;;;;;;;5093086;27;20511;-70
2022/08/21 06:16:24;;;;;;;21.35;10.48;;;;;;;;;;5073453;28;20383;-70
2022/08/21 06:18:50;;;;;;;20.98;10.73;;;;;;;;;;5086589;27;20473;-70
2022/08/21 06:21:17;;;;;;;20.27;10.13;;;;;;;;;;5082993;28;20139;-70
2022/08/21 06:23:44;;;;;;;20.88;9.75;;;;;;;;;;5076597;28;20620;-70
2022/08/21 06:26:12;;;;;;;21.40;10.77;;;;;;;;;;5074383;28;20072;-70
2022/08/21 06:28:38;;;;;;;18.88;9.30;;;;;;;;;;5075147;28;20044;-70
2022/08/21 06:31:12;;;;;;;20.52;10.02;;;;;;;;;;5081720;28;20059;-70
2022/08/21 06:33:38;;;;;;;;;;;;;;;;;;5068670;28;20048;-70
2022/08/21 06:36:04;;;;;;;20.85;9.48;;;;;;;;;;5077259;28;19921;-70
2022/08/21 06:38:30;;;;;;;22.20;9.50;;;;;;;;;;5076814;28;20058;-70
2022/08/21 06:40:56;;;;;;;29.67;10.80;;;;;;;;;;5074112;28;20423;-70
2022/08/21 06:43:23;;;;;;;18.17;9.65;;;;;;;;;;5069692;28;20130;-70
2022/08/21 06:45:49;;;;;;;23.35;9.65;;;;;;;;;;5076677;28;20063;-66
2022/08/21 06:48:15;;;;;;;22.48;9.57;;;;;;;;;;5082091;28;20044;-71
2022/08/21 06:50:41;;;;;;;13.93;9.18;;;;;;;;;;5078248;28;20148;-66
2022/08/21 06:53:10;;;;;;;20.70;9.02;;;;;;;;;;5078400;28;20106;-66
2022/08/21 06:55:36;;;;;;;18.98;9.30;;;;;;;;;;5075057;28;20043;-67
2022/08/21 06:58:03;;;;;;;19.90;9.18;;;;;;;;;;5074776;28;20055;-67
2022/08/21 07:00:30;;;;;;;15.32;9.18;;;;;;;;;;5093100;27;20056;-66
2022/08/21 07:02:56;;;;;;;23.40;8.45;;;;;;;;;;5072878;28;20036;-66
2022/08/21 07:05:25;;;;;;;23.05;8.63;;;;;;;;;;5077967;28;20105;-67
2022/08/21 07:07:52;;;;;;;18.35;8.52;;;;;;;;;;5073948;28;20501;-66
2022/08/21 07:10:18;;;;;;;17.80;7.75;;;;;;;;;;5073590;28;20059;-66
2022/08/21 07:12:45;;;;;;;20.58;8.05;;;;;;;;;;5092089;28;20097;-67
2022/08/21 07:15:11;;;;;;;20.35;8.43;;;;;;;;;;5077736;28;20105;-67
2022/08/21 07:17:37;;;;;;;18.88;8.32;;;;;;;;;;5078027;28;20458;-67
2022/08/21 07:20:05;;;;;;;22.48;7.68;;;;;;;;;;5071226;28;20056;-72
2022/08/21 07:22:31;;;;;;;22.08;8.13;;;;;;;;;;5087123;27;20047;-66
2022/08/21 07:24:58;;;;;;;20.98;8.55;;;;;;;;;;5080068;28;20036;-67
2022/08/21 07:27:24;;;;;;;21.50;8.40;;;;;;;;;;5070365;28;20040;-66
2022/08/21 07:29:50;;;;;;;17.42;8.10;;;;;;;;;;5070800;28;20055;-67
2022/08/21 07:32:16;;;;;;;14.65;7.85;;;;;;;;;;5073568;28;20500;-69
2022/08/21 07:34:43;;;;;;;17.05;8.05;;;;;;;;;;5072761;28;20043;-75
2022/08/21 07:37:09;;;;;;;17.13;6.97;;;;;;;;;;5083400;28;20104;-68
2022/08/21 07:39:36;;;;;;;27.83;9.05;;;;;;;;;;5082720;28;20136;-68
2022/08/21 07:42:03;;;;;;;18.08;7.40;;;;;;;;;;5083123;28;20052;-68
2022/08/21 07:44:29;;;;;;;19.05;8.30;;;;;;;;;;5075078;28;20052;-67
2022/08/21 07:46:55;;;;;;;17.48;6.82;;;;;;;;;;5079038;28;20044;-67
2022/08/21 07:49:21;;;;;;;17.58;7.40;;;;;;;;;;5076436;28;20050;-67
2022/08/21 07:51:47;;;;;;;17.85;7.03;;;;;;;;;;5099114;27;20402;-68
2022/08/21 07:54:13;;;;;;;15.18;6.65;;;;;;;;;;5102429;27;20028;-67
2022/08/21 07:56:40;;;;;;;20.50;6.78;;;;;;;;;;5075937;28;20052;-67
2022/08/21 07:59:06;;;;;;;19.45;6.15;;;;;;;;;;5077847;28;20129;-67
2022/08/21 08:01:32;;;;;;;19.33;6.88;;;;;;;;;;5077396;28;20130;-67
2022/08/21 08:03:59;;;;;;;15.85;6.50;;;;;;;;;;5080535;28;20178;-67
2022/08/21 08:06:25;;;;;;;16.83;6.25;;;;;;;;;;5084318;28;20039;-67
2022/08/21 08:08:52;;;;;;;17.52;5.60;;;;;;;;;;5098964;28;20075;-67
2022/08/21 08:11:18;;;;;;;16.25;6.35;;;;;;;;;;5100665;28;20340;-67
2022/08/21 08:13:47;;;;;;;18.05;5.88;;;;;;;;;;5094712;28;20056;-67
2022/08/21 08:16:14;;;;;;;14.73;6.15;;;;;;;;;;5091504;28;20118;-67
2022/08/21 08:18:41;;;;;;;13.60;5.90;;;;;;;;;;5081353;28;20096;-67
2022/08/21 08:21:08;;;;;;;16.52;5.28;;;;;;;;;;5087530;28;20044;-67
2022/08/21 08:23:34;;;;;;;14.07;5.68;;;;;;;;;;5087927;28;20048;-67
2022/08/21 08:26:02;;;;;;;13.93;5.10;;;;;;;;;;5083645;28;20065;-67
2022/08/21 08:28:29;;;;;;;20.58;5.78;;;;;;;;;;5084160;28;20055;-67
2022/08/21 08:30:55;;;;;;;21.83;6.47;;;;;;;;;;5083884;28;20041;-67
2022/08/21 08:33:22;;;;;;;16.08;4.80;;;;;;;;;;5081155;28;20389;-67
2022/08/21 08:35:49;;;;;;;12.52;4.60;;;;;;;;;;5087623;28;20398;-64
2022/08/21 08:38:18;;;;;;;16.27;5.13;;;;;;;;;;5084903;28;21996;-65
2022/08/21 08:40:51;;;;;;;19.10;4.20;;;;;;;;;;5086683;28;20070;-65
2022/08/21 08:43:17;;;;;;;12.50;3.22;;;;;;;;;;5086852;28;20483;-65
2022/08/21 08:45:47;;;;;;;22.58;4.93;;;;;;;;;;5085358;28;20415;-64
2022/08/21 08:48:14;;;;;;;18.10;3.33;;;;;;;;;;5087140;28;20044;-64
2022/08/21 08:50:49;;;;;;;14.88;2.95;;;;;;;;;;5074728;28;20153;-64
2022/08/21 08:53:17;;;;;;;19.85;3.65;;;;;;;;;;5084376;28;20040;-64
2022/08/21 08:55:45;;;;;;;17.90;4.10;;;;;;;;;;5084830;28;20116;-64
2022/08/21 08:58:17;;;;;;;19.27;4.45;;;;;;;;;;5089358;28;20130;-65
2022/08/21 09:00:44;;;;;;;19.80;3.60;;;;;;;;;;5088929;28;20048;-65
2022/08/21 09:03:10;;;;;;;16.67;4.03;;;;;;;;;;5104396;27;20044;-65
2022/08/21 09:05:43;;;;;;;12.95;3.80;;;;;;;;;;5091612;28;20144;-65
2022/08/21 09:08:16;;;;;;;16.33;3.45;;;;;;;;;;5089091;28;20047;-65
2022/08/21 09:10:43;;;;;;;;;;;;;;;;;;5093749;28;20047;-64
2022/08/21 09:13:21;;;;;;;18.15;3.97;;;;;;;;;;5095848;28;19930;-64
2022/08/21 09:15:59;;;;;;;15.40;3.33;;;;;;;;;;5087051;28;21094;-65
2022/08/21 09:18:38;;;;;;;13.80;3.60;;;;;;;;;;5091570;28;20058;-65
2022/08/21 09:21:12;;;;;;;9.98;2.70;;;;;;;;;;5090831;28;20479;-64
2022/08/21 09:23:57;;;;;;;9.65;2.97;;;;;;;;;;5089514;28;20060;-64
2022/08/21 09:26:26;;;;;;;8.05;2.05;;;;;;;;;;5092985;28;20130;-64
2022/08/21 09:28:55;;;;;;;20.80;4.10;;;;;;;;;;5089234;28;20082;-65
2022/08/21 09:31:23;;;;;;;10.48;2.38;;;;;;;;;;5081450;28;20036;-65
2022/08/21 09:33:49;;;;;;;19.05;3.38;;;;;;;;;;5081323;28;20445;-64
2022/08/21 09:36:25;;;;;;;16.25;3.92;;;;;;;;;;5081779;28;20044;-64
2022/08/21 09:38:54;;;;;;;12.73;2.85;;;;;;;;;;5098871;27;20056;-65
2022/08/21 09:41:27;;;;;;;14.38;3.38;;;;;;;;;;5081518;28;20452;-65
2022/08/21 09:43:54;;;;;;;13.30;3.22;;;;;;;;;;5077449;28;20044;-68
2022/08/21 09:46:23;;;;;;;12.63;2.70;;;;;;;;;;5096372;28;20054;-66
2022/08/21 09:48:52;;;;;;;13.57;2.75;;;;;;;;;;5078290;28;20054;-66
2022/08/21 09:51:20;;;;;;;10.68;2.90;;;;;;;;;;5088816;28;20123;-67
2022/08/21 09:53:48;;;;;;;17.15;4.10;;;;;;;;;;5087208;28;20051;-67
2022/08/21 09:59:15;;;;;;;8.98;2.45;;;;;;;;;;5090122;28;20085;-67
2022/08/21 10:01:43;;;;;;;13.60;2.83;;;;;;;;;;5093130;28;20050;-67
2022/08/21 10:04:10;;;;;;;12.48;2.70;;;;;;;;;;5087954;28;20054;-66
2022/08/21 10:06:36;;;;;;;9.43;2.45;;;;;;;;;;5088114;28;20581;-67
2022/08/21 10:09:06;;;;;;;10.82;2.47;;;;;;;;;;5090428;28;20040;-67
2022/08/21 10:11:34;;;;;;;12.20;2.42;;;;;;;;;;5083475;28;20119;-67
2022/08/21 10:14:06;;;;;;;10.30;2.50;;;;;;;;;;5078925;28;20056;-67
2022/08/21 10:16:34;;;;;;;8.85;2.35;;;;;;;;;;5081136;28;20045;-67
2022/08/21 10:19:12;;;;;;;9.23;2.38;;;;;;;;;;5087236;28;20032;-67
2022/08/21 10:21:39;;;;;;;12.93;2.67;;;;;;;;;;5083381;28;20041;-67
2022/08/21 10:24:05;;;;;;;11.63;2.17;;;;;;;;;;5093567;28;20047;-67
2022/08/21 10:26:36;;;;;;;10.00;3.17;;;;;;;;;;5096771;28;20066;-67
2022/08/21 10:29:05;;;;;;;7.57;2.30;;;;;;;;;;5091996;28;20055;-67
2022/08/21 10:31:45;;;;;;;8.60;2.17;;;;;;;;;;5094588;28;20486;-67
2022/08/21 10:34:21;;;;;;;7.97;2.65;;;;;;;;;;5090237;28;20131;-67
2022/08/21 10:36:56;;;;;;;8.35;2.13;;;;;;;;;;5084549;28;20508;-67
2022/08/21 10:39:30;;;;;;;6.93;2.38;;;;;;;;;;5084726;28;20078;-67
2022/08/21 10:42:06;;;;;;;6.40;2.00;;;;;;;;;;5088041;28;20051;-67
2022/08/21 10:44:38;;;;;;;10.98;2.67;;;;;;;;;;5099436;27;20497;-67
2022/08/21 10:47:09;;;;;;;6.97;1.85;;;;;;;;;;5082788;28;20123;-66
2022/08/21 10:49:48;;;;;;;12.18;1.95;;;;;;;;;;5090534;28;20391;-66
2022/08/21 10:52:23;;;;;;;7.07;1.65;;;;;;;;;;5086145;28;20045;-66
2022/08/21 10:54:56;;;;;;;8.40;1.77;;;;;;;;;;5088281;28;20218;-66
2022/08/21 10:57:27;;;;;;;8.60;1.65;;;;;;;;;;5094065;28;20474;-67
2022/08/21 10:59:59;;;;;;;8.10;2.08;;;;;;;;;;5099780;28;20482;-67
2022/08/21 11:02:29;;;;;;;8.85;2.13;;;;;;;;;;5093054;28;20071;-66
2022/08/21 11:05:00;;;;;;;8.45;1.60;;;;;;;;;;5091111;28;20063;-67
2022/08/21 11:07:31;;;;;;;6.55;1.63;;;;;;;;;;5108900;27;20090;-67
2022/08/21 11:09:58;;;;;;;6.45;1.60;;;;;;;;;;5098228;28;20097;-67
2022/08/21 11:12:37;;;;;;;6.38;1.65;;;;;;;;;;5100723;28;20056;-67
2022/08/21 11:15:23;;;;;;;5.80;1.70;;;;;;;;;;5090193;28;20154;-66
2022/08/21 11:17:55;;;;;;;7.40;1.77;;;;;;;;;;5093148;28;20070;-66
2022/08/21 11:20:28;;;;;;;9.27;2.20;;;;;;;;;;5090808;28;20044;-67
2022/08/21 11:22:58;;;;;;;7.10;1.95;;;;;;;;;;5088690;28;20042;-67
2022/08/21 11:25:34;;;;;;;7.28;1.90;;;;;;;;;;5092765;28;21776;-67
2022/08/21 11:28:04;;;;;;;9.27;2.15;;;;;;;;;;5086883;28;20067;-67
2022/08/21 11:30:37;;;;;;;9.30;2.20;;;;;;;;;;5083402;28;20062;-67
2022/08/21 11:33:14;;;;;;;7.05;1.70;;;;;;;;;;5087472;28;20081;-67
2022/08/21 11:36:03;;;;;;;6.90;1.58;;;;;;;;;;5089060;28;20143;-71
2022/08/21 11:38:35;;;;;;;6.95;1.85;;;;;;;;;;5080988;28;20097;-67
2022/08/21 11:41:07;;;;;;;5.22;1.70;;;;;;;;;;5087436;28;20044;-66
2022/08/21 11:43:34;;;;;;;7.07;2.10;;;;;;;;;;5079262;28;20035;-66
2022/08/21 11:46:11;;;;;;;5.97;1.63;;;;;;;;;;5101621;28;20477;-65
2022/08/21 11:48:42;;;;;;;7.70;2.20;;;;;;;;;;5095301;28;20032;-65
2022/08/21 11:51:12;;;;;;;7.55;1.92;;;;;;;;;;5093258;28;20050;-66
2022/08/21 11:53:44;;;;;;;7.63;1.90;;;;;;;;;;5090604;28;20040;-65
2022/08/21 11:56:15;;;;;;;4.55;1.70;;;;;;;;;;5083430;28;20035;-65
2022/08/21 11:58:44;;;;;;;5.40;1.60;;;;;;;;;;5078901;28;20061;-65
2022/08/21 12:01:13;;;;;;;9.25;2.08;;;;;;;;;;5089000;28;20513;-66
2022/08/21 12:03:42;;;;;;;7.53;1.67;;;;;;;;;;5087172;28;20055;-66
2022/08/21 12:06:10;;;;;;;6.50;1.80;;;;;;;;;;5082519;28;20048;-65
2022/08/21 12:08:38;;;;;;;9.50;1.90;;;;;;;;;;5096592;28;20052;-65
2022/08/21 12:11:07;;;;;;;6.75;1.88;;;;;;;;;;5084531;28;20036;-66
2022/08/21 12:13:36;;;;;;;6.75;1.63;;;;;;;;;;5084753;28;20073;-66
2022/08/21 12:16:10;;;;;;;6.25;1.52;;;;;;;;;;5086522;28;20496;-66
2022/08/21 12:18:37;;;;;;;6.78;1.83;;;;;;;;;;5078176;28;20032;-66
2022/08/21 12:21:06;;;;;;;6.28;1.60;;;;;;;;;;5078688;28;20486;-65
2022/08/21 12:23:43;;;;;;;8.70;1.90;;;;;;;;;;5082477;28;20055;-65
2022/08/21 12:26:09;;;;;;;8.57;1.85;;;;;;;;;;5088282;28;20048;-65
2022/08/21 12:28:36;;;;;;;8.45;2.10;;;;;;;;;;5089745;28;20074;-65
2022/08/21 12:31:02;;;;;;;5.70;1.77;;;;;;;;;;5092873;28;20047;-65
2022/08/21 12:33:31;;;;;;;8.23;1.88;;;;;;;;;;5093237;28;20055;-66
2022/08/21 12:36:04;;;;;;;8.95;1.88;;;;;;;;;;5090602;28;20043;-65
2022/08/21 12:38:34;;;;;;;7.45;1.70;;;;;;;;;;5088748;28;20085;-65
2022/08/21 12:41:01;;;;;;;8.90;1.95;;;;;;;;;;5092253;28;20039;-65
2022/08/21 12:43:31;;;;;;;9.13;2.10;;;;;;;;;;5091124;28;20047;-65
2022/08/21 12:46:00;;;;;;;7.65;2.10;;;;;;;;;;5093105;28;20753;-66
2022/08/21 12:48:30;;;;;;;6.70;1.50;;;;;;;;;;5085403;28;20191;-65
2022/08/21 12:51:00;;;;;;;7.55;1.92;;;;;;;;;;5091593;28;20130;-65
2022/08/21 12:53:31;;;;;;;10.88;2.03;;;;;;;;;;5091264;28;20048;-65
2022/08/21 12:56:01;;;;;;;6.80;1.98;;;;;;;;;;5097591;28;20044;-65
2022/08/21 12:58:28;;;;;;;5.68;1.80;;;;;;;;;;5093586;28;20666;-65
2022/08/21 13:00:57;;;;;;;6.07;1.70;;;;;;;;;;5093403;28;20043;-65
2022/08/21 13:03:23;;;;;;;7.28;1.58;;;;;;;;;;5082607;28;20403;-66
2022/08/21 13:05:51;;;;;;;9.65;2.00;;;;;;;;;;5097664;28;20051;-67
2022/08/21 13:08:20;;;;;;;9.55;2.28;;;;;;;;;;5088917;28;20096;-67
2022/08/21 13:10:47;;;;;;;7.05;2.50;;;;;;;;;;5089048;28;20047;-66
2022/08/21 13:13:20;;;;;;;6.68;1.70;;;;;;;;;;5088949;28;20051;-66
2022/08/21 13:15:46;;;;;;;8.30;1.95;;;;;;;;;;5090590;28;20063;-66
2022/08/21 13:18:21;;;;;;;7.90;2.03;;;;;;;;;;5093053;28;20082;-66
2022/08/21 13:20:47;;;;;;;7.43;1.63;;;;;;;;;;5091488;28;20118;-66
2022/08/21 13:23:23;;;;;;;9.55;2.22;;;;;;;;;;5096217;28;20140;-67
2022/08/21 13:25:49;;;;;;;6.65;1.58;;;;;;;;;;5086151;28;20056;-67
2022/08/21 13:28:16;;;;;;;7.10;1.88;;;;;;;;;;5089651;28;20035;-67
2022/08/21 13:30:43;;;;;;;11.38;2.50;;;;;;;;;;5087260;28;20099;-67
2022/08/21 13:33:11;;;;;;;6.43;1.60;;;;;;;;;;5075822;28;20040;-67
2022/08/21 13:35:47;;;;;;;5.72;1.30;;;;;;;;;;5075302;28;20040;-69
2022/08/21 13:38:14;;;;;;;7.60;1.77;;;;;;;;;;5081150;28;20040;-69
2022/08/21 13:40:50;;;;;;;9.85;2.30;;;;;;;;;;5081121;28;20059;-69
2022/08/21 13:43:19;;;;;;;6.70;1.60;;;;;;;;;;5082498;28;20050;-69
2022/08/21 13:45:48;;;;;;;9.35;1.65;;;;;;;;;;5090650;28;20055;-69
2022/08/21 13:48:15;;;;;;;5.30;1.50;;;;;;;;;;5090004;28;20423;-69
2022/08/21 13:50:42;;;;;;;8.07;2.17;;;;;;;;;;5084582;28;20048;-68
2022/08/21 13:53:20;;;;;;;5.68;1.48;;;;;;;;;;5090458;28;20047;-69
2022/08/21 13:55:46;;;;;;;7.50;2.00;;;;;;;;;;5090218;28;20117;-69
2022/08/21 13:58:12;;;;;;;8.30;1.80;;;;;;;;;;5092989;28;20362;-69
2022/08/21 14:00:46;;;;;;;10.77;2.03;;;;;;;;;;5088555;28;20063;-69
2022/08/21 14:03:23;;;;;;;8.23;2.03;;;;;;;;;;5080711;28;20275;-69
2022/08/21 14:05:50;;;;;;;9.32;1.65;;;;;;;;;;5080618;28;20035;-69
2022/08/21 14:08:24;;;;;;;8.85;1.90;;;;;;;;;;5090479;28;20469;-69
2022/08/21 14:10:51;;;;;;;6.93;1.73;;;;;;;;;;5088189;28;20429;-69
2022/08/21 14:13:30;;;;;;;8.98;2.25;;;;;;;;;;5081073;28;20051;-69
2022/08/21 14:15:58;;;;;;;7.72;1.67;;;;;;;;;;5091663;28;20059;-69
2022/08/21 14:18:25;;;;;;;9.30;1.98;;;;;;;;;;5089795;28;20028;-69
2022/08/21 14:20:52;;;;;;;8.05;1.95;;;;;;;;;;5091284;28;20044;-69
2022/08/21 14:23:25;;;;;;;7.78;1.70;;;;;;;;;;5093477;28;20039;-69
2022/08/21 14:25:52;;;;;;;8.27;1.95;;;;;;;;;;5088893;28;20100;-69
2022/08/21 14:28:20;;;;;;;7.93;2.08;;;;;;;;;;5095450;28;20948;-69
2022/08/21 14:30:46;;;;;;;8.25;1.83;;;;;;;;;;5087376;28;20466;-68
2022/08/21 14:33:13;;;;;;;8.38;1.67;;;;;;;;;;5091196;28;20046;-69
2022/08/21 14:35:42;;;;;;;7.75;1.70;;;;;;;;;;5087429;28;20051;-68
2022/08/21 14:38:14;;;;;;;7.18;1.63;;;;;;;;;;5080915;28;21706;-69
2022/08/21 14:40:41;;;;;;;8.13;1.77;;;;;;;;;;5094171;28;20042;-69
2022/08/21 14:43:08;;;;;;;7.50;1.58;;;;;;;;;;5085302;28;20115;-69